createdAt,value
2022-09-03T00:02:06.669Z,383.00
2022-09-03T00:07:38.444Z,384.00
2022-09-03T00:13:10.350Z,380.00
2022-09-03T00:18:42.727Z,386.00
2022-09-03T00:24:15.147Z,386.00
2022-09-03T00:29:45.715Z,385.00
2022-09-03T00:35:17.698Z,389.00
2022-09-03T00:40:49.399Z,383.00
2022-09-03T00:46:21.195Z,383.00
2022-09-03T00:51:53.026Z,386.00
2022-09-03T00:57:24.812Z,385.00
2022-09-03T01:02:56.258Z,388.00
2022-09-03T01:08:28.168Z,385.00
2022-09-03T01:13:59.957Z,389.00
2022-09-03T01:19:31.706Z,393.00
2022-09-03T01:25:03.525Z,392.00
2022-09-03T01:30:35.213Z,394.00
2022-09-03T01:36:07.330Z,395.00
2022-09-03T01:41:39.004Z,393.00
2022-09-03T01:47:10.579Z,395.00
2022-09-03T01:52:42.601Z,395.00
2022-09-03T01:58:14.438Z,393.00
2022-09-03T02:03:45.944Z,391.00
2022-09-03T02:09:17.783Z,386.00
2022-09-03T02:14:49.700Z,386.00
2022-09-03T02:20:21.426Z,386.00
2022-09-03T02:25:52.908Z,382.00
2022-09-03T02:31:24.794Z,384.00
2022-09-03T02:36:56.629Z,386.00
2022-09-03T02:42:28.443Z,385.00
2022-09-03T02:48:00.313Z,387.00
2022-09-03T02:53:32.111Z,383.00
2022-09-03T02:59:03.890Z,386.00
2022-09-03T03:04:35.994Z,388.00
2022-09-03T03:10:07.883Z,389.00
2022-09-03T03:15:39.450Z,388.00
2022-09-03T03:21:11.151Z,390.00
2022-09-03T03:26:42.969Z,394.00
2022-09-03T03:32:14.882Z,395.00
2022-09-03T03:37:46.553Z,395.00
2022-09-03T03:43:18.229Z,393.00
2022-09-03T03:48:49.837Z,396.00
2022-09-03T03:54:21.557Z,402.00
2022-09-03T03:59:53.604Z,399.00
2022-09-03T04:05:25.112Z,400.00
2022-09-03T04:10:56.782Z,398.00
2022-09-03T04:21:58.032Z,398.00
2022-09-03T04:27:29.716Z,399.00
2022-09-03T04:33:01.113Z,399.00
2022-09-03T04:38:32.625Z,404.00
2022-09-03T04:44:04.474Z,408.00
2022-09-03T04:49:36.213Z,412.00
2022-09-03T04:55:08.034Z,410.00
2022-09-03T05:00:39.992Z,408.00
2022-09-03T05:06:11.564Z,406.00
2022-09-03T05:11:43.421Z,408.00
2022-09-03T05:22:48.939Z,415.00
2022-09-03T05:28:20.463Z,414.00
2022-09-03T05:33:52.418Z,411.00
2022-09-03T05:39:23.967Z,410.00
2022-09-03T05:44:55.705Z,415.00
2022-09-03T05:50:27.827Z,414.00
2022-09-03T05:56:01.444Z,416.00
2022-09-03T06:01:33.262Z,419.00
2022-09-03T06:07:05.192Z,411.00
2022-09-03T06:12:37.026Z,407.00
2022-09-03T06:18:08.981Z,409.00
2022-09-03T06:29:13.190Z,410.00
2022-09-03T06:34:44.921Z,409.00
2022-09-03T06:51:22.219Z,410.00
2022-09-03T06:56:53.726Z,407.00
2022-09-03T07:02:25.722Z,406.00
2022-09-03T07:07:57.590Z,406.00
2022-09-03T07:13:29.043Z,408.00
2022-09-03T07:19:01.151Z,414.00
2022-09-03T07:24:32.667Z,414.00
2022-09-03T07:30:04.550Z,416.00
2022-09-03T07:35:38.856Z,418.00
2022-09-03T07:41:10.465Z,419.00
2022-09-03T07:46:42.541Z,417.00
2022-09-03T07:52:14.639Z,419.00
2022-09-03T07:57:46.467Z,424.00
2022-09-03T08:03:18.542Z,425.00
2022-09-03T08:08:50.439Z,427.00
2022-09-03T08:14:22.255Z,431.00
2022-09-03T08:19:54.093Z,427.00
2022-09-03T08:25:26.270Z,427.00
2022-09-03T08:30:58.492Z,426.00
2022-09-03T08:36:30.242Z,429.00
2022-09-03T08:42:02.058Z,433.00
2022-09-03T08:47:34.739Z,433.00
2022-09-03T08:53:06.549Z,435.00
2022-09-03T08:58:38.911Z,427.00
2022-09-03T09:04:11.128Z,428.00
2022-09-03T09:09:43.051Z,436.00
2022-09-03T09:15:15.140Z,437.00
2022-09-03T09:20:47.126Z,440.00
2022-09-03T09:26:18.608Z,439.00
2022-09-03T09:31:50.169Z,438.00
2022-09-03T09:37:21.947Z,434.00
2022-09-03T09:42:53.946Z,430.00
2022-09-03T09:48:25.847Z,430.00
2022-09-03T09:56:18.549Z,428.00
2022-09-03T10:01:50.267Z,422.00
2022-09-03T10:07:22.444Z,418.00
2022-09-03T10:12:54.044Z,420.00
2022-09-03T10:18:26.238Z,421.00
2022-09-03T10:23:57.700Z,424.00
2022-09-03T10:29:29.292Z,424.00
2022-09-03T10:35:01.356Z,427.00
2022-09-03T10:40:33.115Z,426.00
2022-09-03T10:46:04.859Z,425.00
2022-09-03T10:51:37.057Z,428.00
2022-09-03T10:57:08.657Z,428.00
2022-09-03T11:02:40.770Z,432.00
2022-09-03T11:08:12.663Z,432.00
2022-09-03T11:13:44.160Z,426.00
2022-09-03T11:19:16.280Z,421.00
2022-09-03T11:24:48.053Z,423.00
2022-09-03T11:30:19.857Z,421.00
2022-09-03T11:35:51.833Z,425.00
2022-09-03T11:41:23.222Z,428.00
2022-09-03T11:46:54.812Z,428.00
2022-09-03T11:52:26.766Z,421.00
2022-09-03T11:57:58.075Z,421.00
2022-09-03T12:03:29.579Z,420.00
2022-09-03T12:09:01.525Z,416.00
2022-09-03T12:14:32.966Z,418.00
2022-09-03T12:20:04.534Z,413.00
2022-09-03T12:25:35.971Z,411.00
2022-09-03T12:31:07.761Z,407.00
2022-09-03T12:36:39.515Z,406.00
2022-09-03T12:42:11.287Z,402.00
2022-09-03T12:47:43.346Z,405.00
2022-09-03T12:53:14.841Z,406.00
2022-09-03T12:58:46.179Z,406.00
2022-09-03T13:04:17.720Z,402.00
2022-09-03T13:09:49.385Z,406.00
2022-09-03T13:15:20.746Z,411.00
2022-09-03T13:26:23.644Z,405.00
2022-09-03T13:31:54.822Z,404.00
2022-09-03T13:37:26.563Z,404.00
2022-09-03T13:42:58.250Z,405.00
2022-09-03T13:48:29.954Z,401.00
2022-09-03T13:54:01.593Z,400.00
2022-09-03T13:59:32.847Z,401.00
2022-09-03T14:05:04.257Z,401.00
2022-09-03T14:10:36.208Z,401.00
2022-09-03T14:16:09.127Z,397.00
2022-09-03T14:21:41.489Z,401.00
2022-09-03T14:27:13.748Z,399.00
2022-09-03T14:32:46.088Z,399.00
2022-09-03T14:43:49.855Z,393.00
2022-09-03T14:49:22.060Z,388.00
2022-09-03T14:54:57.210Z,394.00
2022-09-03T15:00:31.219Z,395.00
2022-09-03T15:06:03.176Z,396.00
2022-09-03T15:11:34.993Z,399.00
2022-09-03T15:22:39.220Z,399.00
2022-09-03T15:28:10.695Z,400.00
2022-09-03T15:33:42.790Z,392.00
2022-09-03T15:39:14.859Z,392.00
2022-09-03T15:44:46.684Z,389.00
2022-09-03T15:50:18.377Z,396.00
2022-09-03T15:55:50.425Z,391.00
2022-09-03T16:01:22.461Z,395.00
2022-09-03T16:06:54.122Z,394.00
2022-09-03T16:12:25.772Z,399.00
2022-09-03T16:23:29.381Z,398.00
2022-09-03T16:29:01.347Z,390.00
2022-09-03T16:34:33.060Z,388.00
2022-09-03T16:40:04.842Z,383.00
2022-09-03T16:51:08.402Z,387.00
2022-09-03T16:56:39.987Z,389.00
2022-09-03T17:02:37.053Z,388.00
2022-09-03T17:13:15.548Z,389.00
2022-09-03T17:18:47.226Z,394.00
2022-09-03T17:24:19.131Z,397.00
2022-09-03T17:35:21.837Z,395.00
2022-09-03T17:40:53.547Z,391.00
2022-09-03T17:46:25.419Z,393.00
2022-09-03T17:51:57.459Z,401.00
2022-09-03T17:57:29.585Z,407.00
2022-09-03T18:03:01.539Z,408.00
2022-09-03T18:08:33.167Z,412.00
2022-09-03T18:14:05.043Z,412.00
2022-09-03T18:19:36.724Z,407.00
2022-09-03T18:25:08.277Z,407.00
2022-09-03T18:30:39.957Z,406.00
2022-09-03T18:36:12.271Z,405.00
2022-09-03T18:41:43.578Z,409.00
2022-09-03T18:48:01.830Z,409.00
2022-09-03T18:52:47.380Z,406.00
2022-09-03T18:58:19.133Z,404.00
2022-09-03T19:03:50.982Z,409.00
2022-09-03T19:09:22.723Z,413.00
2022-09-03T19:14:54.623Z,411.00
2022-09-03T19:20:26.233Z,412.00
2022-09-03T19:25:58.195Z,412.00
2022-09-03T19:31:30.084Z,417.00
2022-09-03T19:42:33.807Z,414.00
2022-09-03T19:48:05.717Z,412.00
2022-09-03T19:59:10.853Z,409.00
2022-09-03T20:04:42.762Z,410.00
2022-09-03T20:10:14.762Z,408.00
2022-09-03T20:15:46.835Z,411.00
2022-09-03T20:21:18.744Z,409.00
2022-09-03T20:26:50.422Z,412.00
2022-09-03T20:32:22.288Z,410.00
2022-09-03T20:37:54.486Z,413.00
2022-09-03T20:43:26.065Z,413.00
2022-09-03T20:48:57.742Z,415.00
2022-09-03T20:51:21.437Z,417.00
2022-09-03T20:56:53.382Z,417.00
2022-09-03T21:02:25.287Z,418.00
2022-09-03T21:07:56.830Z,422.00
2022-09-03T21:13:28.430Z,418.00
2022-09-03T21:19:00.443Z,416.00
2022-09-03T21:24:32.165Z,422.00
2022-09-03T21:30:04.663Z,421.00
2022-09-03T21:35:36.870Z,416.00
2022-09-03T21:41:08.319Z,416.00
2022-09-03T21:46:40.450Z,419.00
2022-09-03T21:52:12.317Z,418.00
2022-09-03T21:57:44.277Z,415.00
2022-09-03T22:03:15.845Z,414.00
2022-09-03T22:08:47.624Z,419.00
2022-09-03T22:14:20.097Z,421.00
2022-09-03T22:19:52.207Z,424.00
2022-09-03T22:25:24.303Z,424.00
2022-09-03T22:30:55.991Z,423.00
2022-09-03T22:36:27.644Z,424.00
2022-09-03T22:47:33.945Z,428.00
2022-09-03T22:53:02.956Z,430.00
2022-09-03T22:58:34.928Z,427.00
2022-09-03T23:04:06.592Z,426.00
2022-09-03T23:09:38.022Z,428.00
2022-09-03T23:15:15.789Z,429.00
2022-09-03T23:20:47.633Z,429.00
2022-09-03T23:26:19.358Z,424.00
2022-09-03T23:31:50.987Z,428.00
2022-09-03T23:37:33.418Z,432.00
2022-09-03T23:42:54.601Z,432.00
2022-09-03T23:48:26.510Z,428.00
2022-09-03T23:53:58.121Z,435.00
2022-09-03T23:59:29.876Z,436.00
